Juan Jose Paso, Argentina
Current Conditions -  °F | °C
As of 12:00 AM on Sunday 26 Oct 2014 (Local Time) from SAOC Reporting Station
Clear Clear  
Wind Chill: 26°   Ceiling: Unl
Heat Index: 26°   Visibility: 6mi
Dew Point: 11°   Wind: 17mph
Humidity: 39%   Direction: 340°NNW
Pressure: 29.8"   Gusts: 29mph
Location:  35.83°S, 62.27°W
Report Text: SAOC 260300Z 34015G25KT CAVOK 26/11 Q1009
Loading
Personal Weather Stations






























Interactive Weather Map
Tropical Storm Tracking
New forecast layout! Learn more

10-Day Weather Forecast

Advertisements
Track Severe Weather on mobile